createdAt,value
2023-11-30T00:00:43.260Z,17.17
2023-11-30T00:03:12.810Z,16.70
2023-11-30T00:05:41.019Z,19.52
2023-11-30T00:08:09.100Z,24.58
2023-11-30T00:10:37.215Z,22.77
2023-11-30T00:13:06.236Z,23.85
2023-11-30T00:15:34.493Z,23.45
2023-11-30T00:18:02.917Z,19.20
2023-11-30T00:20:32.490Z,20.33
2023-11-30T00:23:00.559Z,20.80
2023-11-30T00:25:29.796Z,21.60
2023-11-30T00:27:57.954Z,20.95
2023-11-30T00:30:26.129Z,20.08
2023-11-30T00:32:54.419Z,20.92
2023-11-30T00:35:22.905Z,20.00
2023-11-30T00:37:52.314Z,19.88
2023-11-30T00:40:20.510Z,21.17
2023-11-30T00:42:48.877Z,21.75
2023-11-30T00:45:17.332Z,27.67
2023-11-30T00:47:45.531Z,21.85
2023-11-30T00:50:13.731Z,27.85
2023-11-30T00:52:41.884Z,23.35
2023-11-30T00:55:11.576Z,23.73
2023-11-30T00:57:39.740Z,22.15
2023-11-30T01:00:10.134Z,23.52
2023-11-30T01:02:41.238Z,24.38
2023-11-30T01:05:10.593Z,28.85
2023-11-30T01:07:39.066Z,25.13
2023-11-30T01:10:08.379Z,23.65
2023-11-30T01:12:37.948Z,26.38
2023-11-30T01:15:09.371Z,29.05
2023-11-30T01:17:37.564Z,25.00
2023-11-30T01:20:06.625Z,24.80
2023-11-30T01:22:34.817Z,28.25
2023-11-30T01:25:03.124Z,27.02
2023-11-30T01:27:31.299Z,25.60
2023-11-30T01:30:00.882Z,26.30
2023-11-30T01:32:29.121Z,27.40
2023-11-30T01:34:57.336Z,27.83
2023-11-30T01:37:25.447Z,26.80
2023-11-30T01:39:53.537Z,28.45
2023-11-30T01:42:21.865Z,25.00
2023-11-30T01:44:50.286Z,26.70
2023-11-30T01:47:19.894Z,29.08
2023-11-30T01:49:48.057Z,25.75
2023-11-30T01:52:16.174Z,28.20
2023-11-30T01:54:44.340Z,27.55
2023-11-30T01:57:13.664Z,24.00
2023-11-30T01:59:42.185Z,26.48
2023-11-30T02:02:10.591Z,25.33
2023-11-30T02:04:43.867Z,21.42
2023-11-30T02:07:12.077Z,25.40
2023-11-30T02:09:40.298Z,24.58
2023-11-30T02:12:09.094Z,23.60
2023-11-30T02:14:37.485Z,20.13
2023-11-30T02:17:06.001Z,24.75
2023-11-30T02:19:34.183Z,21.15
2023-11-30T02:22:03.676Z,24.33
2023-11-30T02:24:31.826Z,20.35
2023-11-30T02:26:59.969Z,23.55
2023-11-30T02:29:28.009Z,19.38
2023-11-30T02:31:56.180Z,18.75
2023-11-30T02:34:24.308Z,20.77
2023-11-30T02:36:52.856Z,20.20
2023-11-30T02:39:22.448Z,19.25
2023-11-30T02:41:51.571Z,22.92
2023-11-30T02:44:19.703Z,21.77
2023-11-30T02:46:47.814Z,21.00
2023-11-30T02:49:17.827Z,23.10
2023-11-30T02:51:45.943Z,21.30
2023-11-30T02:54:14.383Z,24.42
2023-11-30T02:56:43.901Z,22.85
2023-11-30T02:59:11.995Z,20.38
2023-11-30T03:01:46.601Z,21.38
2023-11-30T03:04:15.175Z,20.50
2023-11-30T03:06:43.890Z,20.40
2023-11-30T03:09:13.285Z,19.05
2023-11-30T03:11:41.583Z,21.67
2023-11-30T03:14:11.160Z,21.73
2023-11-30T03:16:40.525Z,17.63
2023-11-30T03:19:16.425Z,19.67
2023-11-30T03:21:45.689Z,24.40
2023-11-30T03:24:13.962Z,20.17
2023-11-30T03:26:42.188Z,22.90
2023-11-30T03:29:11.848Z,21.63
2023-11-30T03:31:41.015Z,21.90
2023-11-30T03:34:09.616Z,23.40
2023-11-30T03:36:37.864Z,26.73
2023-11-30T03:39:06.148Z,21.95
2023-11-30T03:41:34.515Z,26.13
2023-11-30T03:44:02.800Z,27.17
2023-11-30T03:46:32.434Z,21.90
2023-11-30T03:49:02.009Z,22.15
2023-11-30T03:51:30.247Z,20.67
2023-11-30T03:53:58.437Z,24.65
2023-11-30T03:56:26.684Z,24.20
2023-11-30T03:58:55.724Z,22.08
2023-11-30T04:01:25.935Z,22.23
2023-11-30T04:03:55.512Z,23.27
2023-11-30T04:06:24.895Z,24.35
2023-11-30T04:08:53.276Z,26.13
2023-11-30T04:11:21.747Z,25.27
2023-11-30T04:13:50.046Z,27.38
2023-11-30T04:16:18.794Z,25.70
2023-11-30T04:18:47.110Z,27.90
2023-11-30T04:21:17.234Z,35.22
2023-11-30T04:23:46.372Z,36.03
2023-11-30T04:26:14.609Z,36.38
2023-11-30T04:28:42.752Z,32.60
2023-11-30T04:31:11.215Z,38.88
2023-11-30T04:33:39.458Z,58.25
2023-11-30T04:36:08.507Z,41.40
2023-11-30T04:38:38.330Z,40.33
2023-11-30T04:41:06.899Z,86.35
2023-11-30T04:43:38.342Z,83.05
2023-11-30T04:46:07.057Z,90.47
2023-11-30T04:48:35.358Z,37.95
2023-11-30T04:51:03.866Z,46.45
2023-11-30T04:53:32.082Z,60.25
2023-11-30T04:56:01.599Z,43.15
2023-11-30T04:58:29.778Z,91.70
2023-11-30T05:00:58.234Z,71.70
2023-11-30T05:03:26.813Z,91.88
2023-11-30T05:05:55.186Z,91.30
2023-11-30T05:08:23.362Z,66.15
2023-11-30T05:10:51.421Z,107.57
2023-11-30T05:13:21.009Z,79.35
2023-11-30T05:15:49.131Z,70.40
2023-11-30T05:18:17.236Z,45.17
2023-11-30T05:20:45.469Z,46.40
2023-11-30T05:23:13.743Z,59.40
2023-11-30T05:25:41.799Z,47.28
2023-11-30T05:28:10.007Z,39.80
2023-11-30T05:30:39.433Z,36.33
2023-11-30T05:33:08.404Z,38.13
2023-11-30T05:35:37.391Z,39.35
2023-11-30T05:38:05.523Z,41.17
2023-11-30T05:40:33.648Z,40.63
2023-11-30T05:43:01.854Z,42.38
2023-11-30T05:45:30.032Z,40.05
2023-11-30T05:47:59.724Z,41.92
2023-11-30T05:50:27.988Z,41.10
2023-11-30T05:52:56.010Z,36.40
2023-11-30T05:55:24.188Z,36.22
2023-11-30T05:57:52.340Z,34.30
2023-11-30T06:00:21.667Z,41.05
2023-11-30T06:02:49.932Z,39.13
2023-11-30T06:05:19.548Z,42.63
2023-11-30T06:07:47.717Z,34.22
2023-11-30T06:10:16.415Z,34.70
2023-11-30T06:12:44.700Z,37.08
2023-11-30T06:15:13.669Z,34.75
2023-11-30T06:17:41.812Z,37.30
2023-11-30T06:20:12.743Z,40.40
2023-11-30T06:22:42.520Z,45.40
2023-11-30T06:25:11.164Z,44.67
2023-11-30T06:27:39.325Z,40.85
2023-11-30T06:30:09.533Z,39.50
2023-11-30T06:32:37.903Z,40.35
2023-11-30T06:35:06.932Z,39.33
2023-11-30T06:37:34.997Z,38.80
2023-11-30T06:40:05.480Z,40.30
2023-11-30T06:42:33.634Z,42.38
2023-11-30T06:45:01.802Z,36.97
2023-11-30T06:47:30.032Z,39.80
2023-11-30T06:49:58.111Z,41.33
2023-11-30T06:52:26.355Z,42.58
2023-11-30T06:54:54.618Z,37.33
2023-11-30T06:57:25.080Z,40.65
2023-11-30T06:59:53.440Z,38.50
2023-11-30T07:02:23.045Z,46.70
2023-11-30T07:04:51.383Z,39.95
2023-11-30T07:07:28.139Z,40.83
2023-11-30T07:10:02.348Z,43.97
2023-11-30T07:12:31.881Z,43.35
2023-11-30T07:14:59.988Z,39.65
2023-11-30T07:17:28.158Z,47.42
2023-11-30T07:19:56.274Z,41.35
2023-11-30T07:22:26.204Z,39.78
2023-11-30T07:24:54.754Z,47.03
2023-11-30T07:27:23.016Z,44.30
2023-11-30T07:29:52.666Z,38.85
2023-11-30T07:32:20.857Z,37.47
2023-11-30T07:34:49.166Z,38.55
2023-11-30T07:37:19.194Z,36.22
2023-11-30T07:39:47.809Z,38.03
2023-11-30T07:42:26.099Z,39.20
2023-11-30T07:45:03.628Z,40.50
2023-11-30T07:47:34.138Z,46.10
2023-11-30T07:50:02.529Z,46.60
2023-11-30T07:52:32.887Z,46.38
2023-11-30T07:55:01.288Z,51.45
2023-11-30T07:57:30.682Z,55.75
2023-11-30T07:59:58.897Z,51.50
2023-11-30T08:02:29.059Z,50.92
2023-11-30T08:04:57.444Z,56.17
2023-11-30T08:07:25.595Z,51.80
2023-11-30T08:09:54.449Z,52.85
2023-11-30T08:12:22.967Z,55.83
2023-11-30T08:14:51.129Z,47.80
2023-11-30T08:17:19.408Z,44.65
2023-11-30T08:19:50.054Z,43.67
2023-11-30T08:22:18.225Z,45.22
2023-11-30T08:24:46.372Z,38.65
2023-11-30T08:27:14.779Z,47.38
2023-11-30T08:29:43.877Z,45.85
2023-11-30T08:32:12.392Z,43.22
2023-11-30T08:34:40.510Z,43.90
2023-11-30T08:37:09.976Z,44.38
2023-11-30T08:39:38.128Z,40.88
2023-11-30T08:42:06.666Z,36.70
2023-11-30T08:44:36.585Z,40.95
2023-11-30T08:47:04.784Z,36.75
2023-11-30T08:49:33.271Z,34.88
2023-11-30T08:52:01.611Z,36.55
2023-11-30T08:54:31.077Z,35.50
2023-11-30T08:56:59.457Z,38.33
2023-11-30T08:59:27.586Z,40.33
2023-11-30T09:01:55.952Z,46.90
2023-11-30T09:04:24.218Z,43.78
2023-11-30T09:06:52.432Z,42.47
2023-11-30T09:09:20.594Z,42.78
2023-11-30T09:11:50.136Z,43.42
2023-11-30T09:14:18.298Z,47.15
2023-11-30T09:16:46.538Z,45.75
2023-11-30T09:19:14.870Z,41.03
2023-11-30T09:21:43.228Z,41.33
2023-11-30T09:24:12.224Z,41.83
2023-11-30T09:26:42.500Z,38.88
2023-11-30T09:29:13.276Z,39.30
2023-11-30T09:31:43.092Z,37.05
2023-11-30T09:34:13.036Z,34.72
2023-11-30T09:36:41.430Z,35.90
2023-11-30T09:39:10.269Z,32.70
2023-11-30T09:41:39.666Z,37.40
2023-11-30T09:44:08.430Z,34.95
2023-11-30T09:46:38.102Z,31.20
2023-11-30T09:49:10.077Z,34.47
2023-11-30T09:51:42.490Z,31.40
2023-11-30T09:54:11.806Z,33.85
2023-11-30T09:56:39.965Z,38.72
2023-11-30T09:59:09.003Z,33.05
2023-11-30T10:01:40.698Z,32.35
2023-11-30T10:04:16.231Z,33.97
2023-11-30T10:06:45.102Z,33.03
2023-11-30T10:09:14.410Z,31.15
2023-11-30T10:11:43.294Z,32.53
2023-11-30T10:14:11.770Z,32.88
2023-11-30T10:16:42.232Z,35.95
2023-11-30T10:19:11.854Z,40.63
2023-11-30T10:21:40.273Z,36.17
2023-11-30T10:24:09.260Z,34.20
2023-11-30T10:26:39.248Z,39.30
2023-11-30T10:29:08.515Z,41.45
2023-11-30T10:31:37.897Z,39.88
2023-11-30T10:34:13.688Z,37.45
2023-11-30T10:36:44.658Z,44.78
2023-11-30T10:39:18.029Z,47.65
2023-11-30T10:41:54.494Z,37.85
2023-11-30T10:44:29.786Z,37.70
2023-11-30T10:46:59.696Z,42.30
2023-11-30T10:49:30.807Z,41.08
2023-11-30T10:52:03.182Z,46.40
2023-11-30T10:54:35.845Z,38.47
2023-11-30T10:57:05.488Z,46.38
2023-11-30T10:59:34.397Z,54.28
2023-11-30T11:02:07.198Z,53.25
2023-11-30T11:04:42.072Z,50.47
2023-11-30T11:07:14.910Z,46.80
2023-11-30T11:09:44.304Z,43.70
2023-11-30T11:12:38.805Z,49.58
2023-11-30T11:15:13.253Z,44.28
2023-11-30T11:17:49.210Z,45.35
2023-11-30T11:20:26.497Z,46.08
2023-11-30T11:22:59.499Z,43.97
2023-11-30T11:25:27.927Z,41.63
2023-11-30T11:27:57.232Z,45.67
2023-11-30T11:30:28.107Z,45.80
2023-11-30T11:32:59.892Z,46.35
2023-11-30T11:35:29.792Z,45.67
2023-11-30T11:37:59.324Z,42.70
2023-11-30T11:40:28.425Z,39.22
2023-11-30T11:42:56.728Z,43.35
2023-11-30T11:45:25.046Z,40.40
2023-11-30T11:47:53.619Z,39.65
2023-11-30T11:50:21.723Z,38.95
2023-11-30T11:52:51.888Z,41.00
2023-11-30T11:55:24.859Z,39.63
2023-11-30T11:57:54.166Z,38.65
2023-11-30T12:00:23.211Z,38.88
2023-11-30T12:02:52.012Z,39.10
2023-11-30T12:05:26.210Z,42.30
2023-11-30T12:07:58.274Z,34.60
2023-11-30T12:10:28.698Z,38.38
2023-11-30T12:12:58.470Z,44.28
2023-11-30T12:15:26.580Z,47.97
2023-11-30T12:17:55.138Z,43.28
2023-11-30T12:20:23.857Z,49.05
2023-11-30T12:22:52.244Z,48.95
2023-11-30T12:25:22.361Z,46.90
2023-11-30T12:27:51.312Z,47.15
2023-11-30T12:30:20.651Z,45.75
2023-11-30T12:32:50.087Z,46.05
2023-11-30T12:35:18.514Z,49.33
2023-11-30T12:37:46.936Z,48.38
2023-11-30T12:40:15.811Z,44.67
2023-11-30T12:42:45.948Z,47.95
2023-11-30T12:45:14.626Z,51.03
2023-11-30T12:47:42.977Z,46.63
2023-11-30T12:50:12.265Z,45.50
2023-11-30T12:52:40.719Z,39.63
2023-11-30T12:55:10.562Z,44.30
2023-11-30T12:57:40.695Z,53.45
2023-11-30T13:00:16.793Z,47.35
2023-11-30T13:02:48.730Z,39.83
2023-11-30T13:05:17.726Z,50.78
2023-11-30T13:07:45.988Z,45.33
2023-11-30T13:10:14.316Z,45.38
2023-11-30T13:12:43.449Z,44.55
2023-11-30T13:15:13.927Z,45.85
2023-11-30T13:17:42.663Z,44.40
2023-11-30T13:20:14.482Z,45.15
2023-11-30T13:22:45.793Z,47.78
2023-11-30T13:25:15.796Z,55.20
2023-11-30T13:27:47.671Z,45.05
2023-11-30T13:30:19.302Z,55.50
2023-11-30T13:32:48.298Z,55.60
2023-11-30T13:35:17.069Z,50.55
2023-11-30T13:37:45.329Z,57.80
2023-11-30T13:40:14.044Z,59.35
2023-11-30T13:42:42.427Z,39.95
2023-11-30T13:45:11.250Z,41.33
2023-11-30T13:47:48.543Z,39.55
2023-11-30T13:50:26.229Z,37.08
2023-11-30T13:53:00.745Z,39.30
2023-11-30T13:55:30.157Z,35.35
2023-11-30T13:57:58.572Z,35.78
2023-11-30T14:00:26.996Z,32.78
2023-11-30T14:02:56.983Z,31.92
2023-11-30T14:05:25.313Z,33.92
2023-11-30T14:07:53.609Z,35.78
2023-11-30T14:10:21.760Z,33.83
2023-11-30T14:12:49.917Z,33.72
2023-11-30T14:15:18.421Z,50.90
2023-11-30T14:17:46.660Z,36.78
2023-11-30T14:20:16.314Z,45.65
2023-11-30T14:22:44.669Z,39.08
2023-11-30T14:25:13.726Z,36.80
2023-11-30T14:27:42.139Z,33.75
2023-11-30T14:30:11.255Z,52.63
2023-11-30T14:32:41.365Z,39.85
2023-11-30T14:35:12.978Z,45.25
2023-11-30T14:37:42.891Z,41.83
2023-11-30T14:40:13.751Z,45.90
2023-11-30T14:42:42.033Z,46.13
2023-11-30T14:45:13.325Z,44.53
2023-11-30T14:47:43.077Z,37.88
2023-11-30T14:50:12.051Z,45.90
2023-11-30T14:52:40.903Z,43.10
2023-11-30T14:55:10.550Z,41.78
2023-11-30T14:57:39.006Z,42.83
2023-11-30T15:00:12.623Z,48.65
2023-11-30T15:02:42.517Z,46.40
2023-11-30T15:05:14.919Z,45.80
2023-11-30T15:07:44.089Z,46.85
2023-11-30T15:10:14.958Z,47.15
2023-11-30T15:12:43.220Z,54.38
2023-11-30T15:15:15.589Z,49.95
2023-11-30T15:17:46.339Z,51.78
2023-11-30T15:20:15.678Z,55.83
2023-11-30T15:22:45.023Z,53.30
2023-11-30T15:25:19.955Z,62.60
2023-11-30T15:27:49.673Z,54.47
2023-11-30T15:30:18.782Z,70.00
2023-11-30T15:32:47.201Z,61.40
2023-11-30T15:35:16.412Z,64.80
2023-11-30T15:37:49.660Z,66.97
2023-11-30T15:40:22.304Z,62.65
2023-11-30T15:42:51.946Z,63.97
2023-11-30T15:45:22.528Z,67.70
2023-11-30T15:47:51.147Z,82.47
2023-11-30T15:50:19.446Z,80.93
2023-11-30T15:52:47.689Z,84.82
2023-11-30T15:55:16.325Z,77.57
2023-11-30T15:57:46.281Z,75.53
2023-11-30T16:00:15.534Z,76.50
2023-11-30T16:02:45.148Z,70.57
2023-11-30T16:05:14.810Z,79.40
2023-11-30T16:07:43.753Z,77.10
2023-11-30T16:10:12.918Z,80.25
2023-11-30T16:12:41.150Z,83.53
2023-11-30T16:15:13.070Z,81.18
2023-11-30T16:17:41.474Z,81.82
2023-11-30T16:20:12.583Z,75.07
2023-11-30T16:22:41.301Z,82.45
2023-11-30T16:25:12.283Z,85.72
2023-11-30T16:27:42.742Z,84.15
2023-11-30T16:30:13.283Z,85.00
2023-11-30T16:32:41.675Z,80.95
2023-11-30T16:35:10.428Z,74.72
2023-11-30T16:37:39.046Z,81.22
2023-11-30T16:40:09.045Z,78.63
2023-11-30T16:42:37.489Z,87.13
2023-11-30T16:45:07.276Z,98.00
2023-11-30T16:47:39.314Z,97.18
2023-11-30T16:50:09.706Z,153.80
2023-11-30T16:52:38.671Z,126.15
2023-11-30T16:55:07.615Z,89.82
2023-11-30T16:57:35.652Z,108.60
2023-11-30T17:00:05.961Z,94.05
2023-11-30T17:02:34.550Z,78.30
2023-11-30T17:05:04.351Z,81.90
2023-11-30T17:07:32.354Z,84.57
2023-11-30T17:10:00.580Z,81.80
2023-11-30T17:12:28.776Z,91.00
2023-11-30T17:14:56.897Z,118.03
2023-11-30T17:17:24.912Z,106.00
2023-11-30T17:19:52.983Z,107.20
2023-11-30T17:22:22.510Z,104.90
2023-11-30T17:24:50.585Z,108.07
2023-11-30T17:27:18.832Z,91.85
2023-11-30T17:29:46.997Z,81.82
2023-11-30T17:32:15.513Z,96.93
2023-11-30T17:34:44.506Z,105.55
2023-11-30T17:37:14.189Z,95.85
2023-11-30T17:39:43.734Z,99.43
2023-11-30T17:42:11.893Z,87.20
2023-11-30T17:44:39.925Z,97.40
2023-11-30T17:47:08.708Z,94.43
2023-11-30T17:49:37.343Z,93.88
2023-11-30T17:52:05.939Z,96.00
2023-11-30T17:54:34.078Z,89.63
2023-11-30T17:57:03.673Z,89.00
2023-11-30T17:59:31.941Z,82.38
2023-11-30T18:02:00.256Z,79.35
2023-11-30T18:04:28.451Z,84.22
2023-11-30T18:06:56.671Z,96.90
2023-11-30T18:09:27.626Z,94.78
2023-11-30T18:11:58.588Z,87.05
2023-11-30T18:14:32.610Z,91.05
2023-11-30T18:17:00.883Z,94.07
2023-11-30T18:19:29.200Z,92.80
2023-11-30T18:21:58.091Z,109.40
2023-11-30T18:24:30.948Z,101.72
2023-11-30T18:26:59.812Z,121.65
2023-11-30T18:29:29.565Z,157.15
2023-11-30T18:31:58.073Z,138.98
2023-11-30T18:34:26.454Z,108.35
2023-11-30T18:36:54.639Z,125.75
2023-11-30T18:39:24.207Z,122.07
2023-11-30T18:41:56.037Z,168.10
2023-11-30T18:44:24.176Z,157.60
2023-11-30T18:46:53.664Z,160.52
2023-11-30T18:49:21.908Z,148.38
2023-11-30T18:51:50.106Z,151.50
2023-11-30T18:54:18.894Z,158.90
2023-11-30T18:56:48.570Z,174.98
2023-11-30T18:59:16.639Z,154.75
2023-11-30T19:01:45.153Z,173.52
2023-11-30T19:04:14.838Z,199.00
2023-11-30T19:06:42.977Z,176.27
2023-11-30T19:09:11.244Z,160.55
2023-11-30T19:11:39.438Z,157.18
2023-11-30T19:14:07.706Z,187.68
2023-11-30T19:16:37.012Z,165.07
2023-11-30T19:19:05.173Z,154.55
2023-11-30T19:21:34.721Z,157.65
2023-11-30T19:24:02.948Z,174.00
2023-11-30T19:26:31.031Z,175.25
2023-11-30T19:28:59.025Z,175.10
2023-11-30T19:31:27.235Z,176.07
2023-11-30T19:33:55.335Z,173.88
2023-11-30T19:36:23.467Z,156.93
2023-11-30T19:38:52.981Z,180.55
2023-11-30T19:41:20.982Z,189.98
2023-11-30T19:43:49.070Z,193.93
2023-11-30T19:46:17.899Z,178.95
2023-11-30T19:48:46.223Z,187.77
2023-11-30T19:51:17.690Z,195.10
2023-11-30T19:53:45.831Z,180.40
2023-11-30T19:56:18.705Z,172.68
2023-11-30T19:58:47.055Z,179.50
2023-11-30T20:01:21.414Z,180.27
2023-11-30T20:03:49.756Z,178.45
2023-11-30T20:06:18.279Z,178.88
2023-11-30T20:08:46.431Z,174.63
2023-11-30T20:11:15.096Z,150.88
2023-11-30T20:13:44.541Z,147.75
2023-11-30T20:16:13.100Z,142.27
2023-11-30T20:18:42.086Z,168.63
2023-11-30T20:21:18.708Z,155.60
2023-11-30T20:23:46.817Z,160.60
2023-11-30T20:26:15.219Z,142.02
2023-11-30T20:28:44.591Z,154.93
2023-11-30T20:31:13.992Z,150.70
2023-11-30T20:33:42.230Z,146.82
2023-11-30T20:36:10.926Z,142.35
2023-11-30T20:38:40.708Z,152.23
2023-11-30T20:41:11.900Z,117.00
2023-11-30T20:43:40.137Z,124.18
2023-11-30T20:46:09.841Z,125.32
2023-11-30T20:48:38.066Z,134.25
2023-11-30T20:51:06.836Z,123.07
2023-11-30T20:53:34.964Z,125.40
2023-11-30T20:56:03.948Z,119.93
2023-11-30T20:58:32.074Z,118.72
2023-11-30T21:01:00.861Z,152.85
2023-11-30T21:03:30.940Z,124.40
2023-11-30T21:06:01.059Z,127.03
2023-11-30T21:08:31.150Z,130.95
2023-11-30T21:10:59.279Z,106.22
2023-11-30T21:13:27.337Z,129.90
2023-11-30T21:15:55.552Z,135.00
2023-11-30T21:18:24.124Z,129.77
2023-11-30T21:20:53.713Z,122.28
2023-11-30T21:23:21.955Z,112.15
2023-11-30T21:25:50.054Z,117.93
2023-11-30T21:28:18.050Z,109.68
2023-11-30T21:30:46.081Z,107.43
2023-11-30T21:33:14.404Z,90.60
2023-11-30T21:35:42.618Z,94.22
2023-11-30T21:38:12.197Z,106.20
2023-11-30T21:40:40.346Z,108.55
2023-11-30T21:43:08.493Z,105.68
2023-11-30T21:45:36.625Z,108.18
2023-11-30T21:48:04.986Z,94.70
2023-11-30T21:50:33.415Z,91.97
2023-11-30T21:53:01.600Z,71.60
2023-11-30T21:55:31.625Z,71.40
2023-11-30T21:57:59.757Z,88.47
2023-11-30T22:00:28.108Z,102.55
2023-11-30T22:02:56.356Z,89.72
2023-11-30T22:05:30.726Z,101.93
2023-11-30T22:08:04.394Z,94.55
2023-11-30T22:10:33.906Z,75.03
2023-11-30T22:13:02.301Z,89.47
2023-11-30T22:15:30.514Z,77.07
2023-11-30T22:17:59.856Z,81.00
2023-11-30T22:20:28.722Z,74.75
2023-11-30T22:22:56.864Z,58.95
2023-11-30T22:25:25.191Z,65.75
2023-11-30T22:27:55.343Z,65.10
2023-11-30T22:30:23.511Z,60.63
2023-11-30T22:32:52.941Z,54.08
2023-11-30T22:35:21.111Z,56.35
2023-11-30T22:37:49.479Z,55.38
2023-11-30T22:40:17.783Z,51.97
2023-11-30T22:42:45.974Z,48.75
2023-11-30T22:45:15.708Z,43.63
2023-11-30T22:47:43.801Z,47.17
2023-11-30T22:50:11.928Z,46.65
2023-11-30T22:52:40.133Z,51.33
2023-11-30T22:55:09.771Z,49.05
2023-11-30T22:57:38.203Z,45.65
2023-11-30T23:00:09.102Z,45.83
2023-11-30T23:02:38.729Z,43.90
2023-11-30T23:05:07.887Z,48.85
2023-11-30T23:07:35.910Z,49.95
2023-11-30T23:10:04.058Z,54.17
2023-11-30T23:12:32.186Z,46.33
2023-11-30T23:15:00.310Z,43.67
2023-11-30T23:17:28.393Z,45.30
2023-11-30T23:19:57.829Z,41.00
2023-11-30T23:22:25.908Z,44.83
2023-11-30T23:24:53.994Z,49.38
2023-11-30T23:27:22.414Z,42.60
2023-11-30T23:29:50.514Z,48.78
2023-11-30T23:32:18.620Z,46.10
2023-11-30T23:34:46.848Z,50.58
2023-11-30T23:37:17.458Z,52.60
2023-11-30T23:39:45.625Z,46.80
2023-11-30T23:42:13.863Z,46.75
2023-11-30T23:44:42.776Z,47.38
2023-11-30T23:47:10.928Z,56.63
2023-11-30T23:49:39.501Z,48.00
2023-11-30T23:52:08.200Z,51.45
2023-11-30T23:54:37.735Z,46.50
2023-11-30T23:57:06.411Z,48.88
2023-11-30T23:59:34.978Z,47.65
